aviador You're here:

LFGA Decoded Metar

COLMAR in FRANCE
Report Time2017-11-20 22:30:00
UTC Time2017-11-20 22:58:12
Flight Rules vfr VFR
WindVRB at 02 kt
Visibility9999 m
Phenomena:N/A
Clouds:Broken 035 Hf
Overcast 230 Hf
Expected CloudBase > 1,200 ft AGL from Temp-Dew spread
Ceiling3,500 ft
Temp06°C
Dew Point03°C (81% RH)
AAT3.8°C
QNH1019 hPa
Raw Report
METAR LFGA 202230Z AUTO VRB02KT 9999 BKN035 OVC230 06/03 Q1019=

Extra information for LFGA:More info

Metar Taf Metar & Taf Last 4 Metars F.Rules Stats Wind Profile Meteogram Temp Stats Airport Information Weather charts Add Link Nearby VenuesMetar ALERT Operation Metar Decoded Social comments